Time;durP1;ratioP1;P1;durP2;ratioP2;P2;SDS_P1;SDS_P2;PMS_P1;PMS_P2;Temp;Humidity;BMP_temperature;BMP_pressure;BME280_temperature;BME280_humidity;BME280_pressure;Samples;Min_cycle;Max_cycle;Signal;HPM_P1;HPM_P2
2021/06/01 00:01:49;;;;;;;;;;;;;;;;;;5051086;28;19917;-75
2021/06/01 00:04:15;;;;;;;;;;;;;;;;;;5051933;28;19912;-74
2021/06/01 00:06:40;;;;;;;;;;;;;;;;;;5049766;28;19920;-74
2021/06/01 00:09:06;;;;;;;;;;;;;;;;;;5042575;28;19920;-75
2021/06/01 00:11:32;;;;;;;;;;;;;;;;;;5039363;28;19922;-73
2021/06/01 00:13:58;;;;;;;;;;;;;;;;;;5040001;28;19949;-74
2021/06/01 00:16:24;;;;;;;;;;;;;;;;;;5036666;28;20382;-73
2021/06/01 00:18:50;;;;;;;;;;;;;;;;;;5051213;28;19913;-74
2021/06/01 00:21:16;;;;;;;;;;;;;;;;;;5043009;28;20760;-74
2021/06/01 00:23:42;;;;;;;;;;;;;;;;;;5046111;28;19913;-74
2021/06/01 00:26:08;;;;;;;;;;;;;;;;;;5040139;28;19913;-74
2021/06/01 00:28:33;;;;;;;;;;;;;;;;;;5044285;28;19912;-74
2021/06/01 00:30:59;;;;;;;;;;;;;;;;;;5044947;28;19924;-75
2021/06/01 00:33:25;;;;;;;;;;;;;;;;;;5043163;28;19967;-74
2021/06/01 00:35:51;;;;;;;;;;;;;;;;;;5045384;28;19917;-74
2021/06/01 00:38:17;;;;;;;;;;;;;;;;;;5043160;28;19917;-74
2021/06/01 00:40:43;;;;;;;;;;;;;;;;;;5043108;28;19935;-73
2021/06/01 00:43:09;;;;;;;;;;;;;;;;;;5040418;28;19917;-74
2021/06/01 00:45:35;;;;;;;;;;;;;;;;;;5041411;28;19964;-74
2021/06/01 00:48:00;;;;;;;;;;;;;;;;;;5038075;28;19951;-74
2021/06/01 00:50:26;;;;;;;;;;;;;;;;;;5041960;28;20436;-74
2021/06/01 00:52:52;;;;;;;;;;;;;;;;;;5049734;28;19913;-74
2021/06/01 00:55:18;;;;;;;;;;;;;;;;;;5044456;28;20355;-75
2021/06/01 00:57:44;;;;;;;;;;;;;;;;;;5037971;28;20011;-75
2021/06/01 01:00:21;;;;;;;;;;;;;;;;;;5031367;28;19913;-74
2021/06/01 01:02:47;;;;;;;;;;;;;;;;;;5039047;28;20387;-74
2021/06/01 01:05:14;;;;;;;;;;;;;;;;;;5042422;28;19924;-73
2021/06/01 01:07:46;;;;;;;;;;;;;;;;;;5050075;28;19924;-74
2021/06/01 01:10:12;;;;;;;;;;;;;;;;;;5043469;28;19925;-73
2021/06/01 01:12:38;;;;;;;;;;;;;;;;;;5042583;28;19924;-73
2021/06/01 01:15:04;;;;;;;;;;;;;;;;;;5032196;28;20319;-75
2021/06/01 01:17:30;;;;;;;;;;;;;;;;;;5039979;28;19959;-74
2021/06/01 01:19:56;;;;;;;;;;;;;;;;;;5038861;28;20024;-74
2021/06/01 01:22:22;;;;;;;;;;;;;;;;;;5035391;28;19913;-74
2021/06/01 01:24:48;;;;;;;;;;;;;;;;;;5043506;28;19929;-75
2021/06/01 01:27:15;;;;;;;;;;;;;;;;;;5046177;28;20028;-75
2021/06/01 01:29:41;;;;;;;;;;;;;;;;;;5035959;28;20373;-74
2021/06/01 01:32:06;;;;;;;;;;;;;;;;;;5050860;28;19912;-74
2021/06/01 01:34:33;;;;;;;;;;;;;;;;;;5042209;28;19971;-73
2021/06/01 01:36:59;;;;;;;;;;;;;;;;;;5038408;28;19955;-74
2021/06/01 01:39:24;;;;;;;;;;;;;;;;;;5049514;28;19968;-74
2021/06/01 01:41:50;;;;;;;;;;;;;;;;;;5045527;28;19917;-75
2021/06/01 01:44:17;;;;;;;;;;;;;;;;;;5032302;28;19917;-74
2021/06/01 01:49:09;;;;;;;;;;;;;;;;;;5040268;28;19925;-74
2021/06/01 01:51:35;;;;;;;;;;;;;;;;;;5050046;28;20451;-74
2021/06/01 01:54:01;;;;;;;;;;;;;;;;;;5047122;28;19940;-74
2021/06/01 01:56:27;;;;;;;;;;;;;;;;;;5048278;28;19917;-74
2021/06/01 01:58:53;;;;;;;;;;;;;;;;;;5038025;28;19913;-74
2021/06/01 02:01:19;;;;;;;;;;;;;;;;;;5043971;28;19920;-74
2021/06/01 02:03:44;;;;;;;;;;;;;;;;;;5041905;28;19913;-75
2021/06/01 02:06:10;;;;;;;;;;;;;;;;;;5037758;28;20055;-74
2021/06/01 02:08:36;;;;;;;;;;;;;;;;;;5040486;28;20304;-74
2021/06/01 02:11:02;;;;;;;;;;;;;;;;;;5037203;28;19999;-74
2021/06/01 02:13:29;;;;;;;;;;;;;;;;;;5038269;28;19917;-75
2021/06/01 02:15:55;;;;;;;;;;;;;;;;;;5032583;28;19913;-75
2021/06/01 02:18:20;;;;;;;;;;;;;;;;;;5038487;28;19914;-74
2021/06/01 02:20:48;;;;;;;;;;;;;;;;;;5039235;28;20035;-73
2021/06/01 02:25:59;;;;;;;;;;;;;;;;;;5049208;28;19920;-74
2021/06/01 02:28:25;;;;;;;;;;;;;;;;;;5042070;28;19912;-74
2021/06/01 02:30:51;;;;;;;;;;;;;;;;;;5040995;28;20043;-73
2021/06/01 02:33:16;;;;;;;;;;;;;;;;;;5042152;28;20365;-74
2021/06/01 02:35:42;;;;;;;;;;;;;;;;;;5042964;28;19952;-74
2021/06/01 02:38:08;;;;;;;;;;;;;;;;;;5038465;28;19920;-74
2021/06/01 02:40:34;;;;;;;;;;;;;;;;;;5029811;28;19924;-75
2021/06/01 02:43:00;;;;;;;;;;;;;;;;;;5043323;28;20287;-74
2021/06/01 02:45:26;;;;;;;;;;;;;;;;;;5031961;28;19913;-74
2021/06/01 02:47:52;;;;;;;;;;;;;;;;;;5034479;28;19925;-74
2021/06/01 02:50:18;;;;;;;;;;;;;;;;;;5046795;28;19960;-73
2021/06/01 02:52:44;;;;;;;;;;;;;;;;;;5046593;28;19932;-75
2021/06/01 02:55:10;;;;;;;;;;;;;;;;;;5047750;28;19913;-75
2021/06/01 02:57:36;;;;;;;;;;;;;;;;;;5048869;28;19959;-74
2021/06/01 03:00:01;;;;;;;;;;;;;;;;;;5043605;28;19917;-75
2021/06/01 03:02:27;;;;;;;;;;;;;;;;;;5042513;28;20493;-75
2021/06/01 03:04:53;;;;;;;;;;;;;;;;;;5038301;28;20102;-74
2021/06/01 03:07:19;;;;;;;;;;;;;;;;;;5038529;28;19921;-74
2021/06/01 03:09:45;;;;;;;;;;;;;;;;;;5045216;28;19921;-75
2021/06/01 03:14:55;;;;;;;;;;;;;;;;;;5041260;28;20413;-74
2021/06/01 03:17:21;;;;;;;;;;;;;;;;;;5044505;28;19917;-74
2021/06/01 03:19:47;;;;;;;;;;;;;;;;;;5041196;28;19917;-74
2021/06/01 03:22:13;;;;;;;;;;;;;;;;;;5039923;28;19957;-74
2021/06/01 03:24:39;;;;;;;;;;;;;;;;;;5046295;28;19913;-73
2021/06/01 03:27:05;;;;;;;;;;;;;;;;;;5044828;28;19924;-73
2021/06/01 03:29:31;;;;;;;;;;;;;;;;;;5043174;28;19925;-74
2021/06/01 03:31:56;;;;;;;;;;;;;;;;;;5034242;28;19924;-74
2021/06/01 03:34:23;;;;;;;;;;;;;;;;;;5041653;28;19917;-74
2021/06/01 03:36:49;;;;;;;;;;;;;;;;;;5041729;28;19957;-74
2021/06/01 03:39:16;;;;;;;;;;;;;;;;;;5039535;28;20420;-75
2021/06/01 03:41:42;;;;;;;;;;;;;;;;;;5036900;28;19917;-75
2021/06/01 03:44:08;;;;;;;;;;;;;;;;;;5044383;28;19916;-74
2021/06/01 03:46:34;;;;;;;;;;;;;;;;;;5052204;28;19929;-75
2021/06/01 03:49:00;;;;;;;;;;;;;;;;;;5042738;28;19935;-74
2021/06/01 03:51:26;;;;;;;;;;;;;;;;;;5046771;28;20385;-73
2021/06/01 03:53:52;;;;;;;;;;;;;;;;;;5048271;28;19952;-74
2021/06/01 03:56:18;;;;;;;;;;;;;;;;;;5044305;28;19923;-74
2021/06/01 03:58:44;;;;;;;;;;;;;;;;;;5037461;28;19925;-74
2021/06/01 04:01:09;;;;;;;;;;;;;;;;;;5039450;28;19917;-75
2021/06/01 04:03:40;;;;;;;;;;;;;;;;;;5042784;28;19919;-75
2021/06/01 04:06:06;;;;;;;;;;;;;;;;;;5052578;28;19964;-74
2021/06/01 04:08:32;;;;;;;;;;;;;;;;;;5038147;28;20342;-74
2021/06/01 04:10:58;;;;;;;;;;;;;;;;;;5036711;28;19912;-75
2021/06/01 04:13:24;;;;;;;;;;;;;;;;;;5050218;28;20397;-75
2021/06/01 04:15:50;;;;;;;;;;;;;;;;;;5051840;28;19917;-74
2021/06/01 04:18:15;;;;;;;;;;;;;;;;;;5039798;28;19913;-75
2021/06/01 04:20:41;;;;;;;;;;;;;;;;;;5046593;28;19921;-74
2021/06/01 04:23:07;;;;;;;;;;;;;;;;;;5034811;28;20004;-74
2021/06/01 04:25:33;;;;;;;;;;;;;;;;;;5045815;28;20321;-75
2021/06/01 04:27:59;;;;;;;;;;;;;;;;;;5034558;28;20028;-75
2021/06/01 04:30:25;;;;;;;;;;;;;;;;;;5052063;28;20391;-74
2021/06/01 04:32:51;;;;;;;;;;;;;;;;;;5041365;28;19913;-73
2021/06/01 04:35:17;;;;;;;;;;;;;;;;;;5044617;28;20004;-74
2021/06/01 04:37:42;;;;;;;;;;;;;;;;;;5043896;28;19917;-74
2021/06/01 04:40:13;;;;;;;;;;;;;;;;;;5053036;28;19921;-74
2021/06/01 04:42:39;;;;;;;;;;;;;;;;;;5055902;28;20352;-74
2021/06/01 04:45:05;;;;;;;;;;;;;;;;;;5048354;28;20003;-74
2021/06/01 04:47:31;;;;;;;;;;;;;;;;;;5031959;28;20022;-73
2021/06/01 04:49:57;;;;;;;;;;;;;;;;;;5040949;28;19928;-74
2021/06/01 04:52:23;;;;;;;;;;;;;;;;;;5047117;28;19952;-73
2021/06/01 04:54:49;;;;;;;;;;;;;;;;;;5046235;28;19917;-74
2021/06/01 04:57:15;;;;;;;;;;;;;;;;;;5042950;28;19936;-73
2021/06/01 04:59:41;;;;;;;;;;;;;;;;;;5044961;28;19920;-74
2021/06/01 05:02:07;;;;;;;;;;;;;;;;;;5048466;28;19913;-74
2021/06/01 05:04:33;;;;;;;;;;;;;;;;;;5042404;28;19912;-75
2021/06/01 05:06:59;;;;;;;;;;;;;;;;;;5049556;28;19916;-74
2021/06/01 05:09:25;;;;;;;;;;;;;;;;;;5046595;28;19928;-74
2021/06/01 05:11:51;;;;;;;;;;;;;;;;;;5051603;28;19920;-74
2021/06/01 05:14:17;;;;;;;;;;;;;;;;;;5052466;28;19958;-74
2021/06/01 05:16:43;;;;;;;;;;;;;;;;;;5050738;28;20035;-74
2021/06/01 05:19:09;;;;;;;;;;;;;;;;;;5042496;28;20268;-73
2021/06/01 05:21:35;;;;;;;;;;;;;;;;;;5051244;28;19912;-73
2021/06/01 05:24:00;;;;;;;;;;;;;;;;;;5046054;28;19921;-73
2021/06/01 05:26:26;;;;;;;;;;;;;;;;;;5047742;28;19927;-74
2021/06/01 05:28:52;;;;;;;;;;;;;;;;;;5043410;28;19925;-73
2021/06/01 05:31:26;;;;;;;;;;;;;;;;;;5041326;28;19912;-74
2021/06/01 05:33:54;;;;;;;;;;;;;;;;;;5039113;28;19917;-73
2021/06/01 05:36:20;;;;;;;;;;;;;;;;;;5047434;28;19927;-72
2021/06/01 05:38:46;;;;;;;;;;;;;;;;;;5041888;28;19995;-73
2021/06/01 05:41:12;;;;;;;;;;;;;;;;;;5043830;28;19944;-74
2021/06/01 05:43:38;;;;;;;;;;;;;;;;;;5047291;28;19967;-73
2021/06/01 05:46:04;;;;;;;;;;;;;;;;;;5038957;28;20276;-73
2021/06/01 05:48:30;;;;;;;;;;;;;;;;;;5040384;28;19939;-74
2021/06/01 05:50:56;;;;;;;;;;;;;;;;;;5050030;28;20000;-74
2021/06/01 05:53:24;;;;;;;;;;;;;;;;;;5047372;28;19944;-74
2021/06/01 05:55:49;;;;;;;;;;;;;;;;;;5038316;28;20322;-74
2021/06/01 05:58:15;;;;;;;;;;;;;;;;;;5037369;28;20363;-74
2021/06/01 06:00:41;;;;;;;;;;;;;;;;;;5042124;28;19943;-74
2021/06/01 06:03:07;;;;;;;;;;;;;;;;;;5044485;28;19913;-73
2021/06/01 06:05:33;;;;;;;;;;;;;;;;;;5045704;28;20046;-72
2021/06/01 06:07:59;;;;;;;;;;;;;;;;;;5037639;28;20256;-73
2021/06/01 06:10:25;;;;;;;;;;;;;;;;;;5044884;28;19975;-75
2021/06/01 06:12:51;;;;;;;;;;;;;;;;;;5041695;28;19913;-73
2021/06/01 06:15:17;;;;;;;;;;;;;;;;;;5046150;28;20282;-72
2021/06/01 06:17:44;;;;;;;;;;;;;;;;;;5048786;28;19912;-74
2021/06/01 06:20:09;;;;;;;;;;;;;;;;;;5048827;28;19912;-73
2021/06/01 06:22:37;;;;;;;;;;;;;;;;;;5043133;28;19919;-73
2021/06/01 06:25:02;;;;;;;;;;;;;;;;;;5040322;28;19920;-73
2021/06/01 06:27:28;;;;;;;;;;;;;;;;;;5034967;28;19913;-73
2021/06/01 06:29:54;;;;;;;;;;;;;;;;;;5040313;28;19968;-72
2021/06/01 06:32:20;;;;;;;;;;;;;;;;;;5037717;28;19982;-73
2021/06/01 06:34:46;;;;;;;;;;;;;;;;;;5040651;28;20040;-73
2021/06/01 06:37:12;;;;;;;;;;;;;;;;;;5042510;28;19917;-73
2021/06/01 06:39:39;;;;;;;;;;;;;;;;;;5033878;28;19916;-73
2021/06/01 06:42:05;;;;;;;;;;;;;;;;;;5041215;28;20413;-73
2021/06/01 06:44:31;;;;;;;;;;;;;;;;;;5042058;28;19916;-74
2021/06/01 06:49:35;;;;;;;;;;;;;;;;;;5038448;28;19921;-73
2021/06/01 06:52:01;;;;;;;;;;;;;;;;;;5039058;28;19923;-74
2021/06/01 06:54:26;;;;;;;;;;;;;;;;;;5049618;28;19913;-74
2021/06/01 06:56:52;;;;;;;;;;;;;;;;;;5039693;28;20003;-72
2021/06/01 06:59:18;;;;;;;;;;;;;;;;;;5043014;28;19958;-73
2021/06/01 07:01:44;;;;;;;;;;;;;;;;;;5046620;28;19913;-74
2021/06/01 07:04:10;;;;;;;;;;;;;;;;;;5049639;28;19913;-73
2021/06/01 07:06:36;;;;;;;;;;;;;;;;;;5047005;28;20360;-74
2021/06/01 07:09:02;;;;;;;;;;;;;;;;;;5044430;28;19925;-73
2021/06/01 07:11:28;;;;;;;;;;;;;;;;;;5045722;28;19913;-75
2021/06/01 07:13:54;;;;;;;;;;;;;;;;;;5037660;28;19909;-74
2021/06/01 07:16:19;;;;;;;;;;;;;;;;;;5052198;28;20383;-73
2021/06/01 07:18:46;;;;;;;;;;;;;;;;;;5045262;28;19924;-74
2021/06/01 07:21:12;;;;;;;;;;;;;;;;;;5052539;28;19924;-73
2021/06/01 07:23:38;;;;;;;;;;;;;;;;;;5048618;28;19917;-73
2021/06/01 07:26:04;;;;;;;;;;;;;;;;;;5041518;28;19974;-74
2021/06/01 07:28:30;;;;;;;;;;;;;;;;;;5042303;28;19962;-73
2021/06/01 07:30:56;;;;;;;;;;;;;;;;;;5048316;28;20426;-72
2021/06/01 07:33:22;;;;;;;;;;;;;;;;;;5042506;28;19913;-73
2021/06/01 07:35:47;;;;;;;;;;;;;;;;;;5033267;28;20006;-74
2021/06/01 07:38:13;;;;;;;;;;;;;;;;;;5032775;28;19916;-73
2021/06/01 07:40:39;;;;;;;;;;;;;;;;;;5044891;28;19912;-74
2021/06/01 07:43:05;;;;;;;;;;;;;;;;;;5052848;28;19979;-74
2021/06/01 07:45:32;;;;;;;;;;;;;;;;;;5041802;28;19919;-73
2021/06/01 07:47:58;;;;;;;;;;;;;;;;;;5032997;28;19922;-73
2021/06/01 07:50:24;;;;;;;;;;;;;;;;;;5040363;28;20015;-73
2021/06/01 07:52:50;;;;;;;;;;;;;;;;;;5037987;28;19913;-73
2021/06/01 07:55:16;;;;;;;;;;;;;;;;;;5035830;28;19913;-74
2021/06/01 07:57:42;;;;;;;;;;;;;;;;;;5041096;28;19920;-74
2021/06/01 08:00:08;;;;;;;;;;;;;;;;;;5039718;28;20311;-74
2021/06/01 08:02:33;;;;;;;;;;;;;;;;;;5044140;28;20443;-73
2021/06/01 08:04:59;;;;;;;;;;;;;;;;;;5056193;28;19913;-73
2021/06/01 08:07:25;;;;;;;;;;;;;;;;;;5054364;28;19959;-73
2021/06/01 08:09:51;;;;;;;;;;;;;;;;;;5044116;28;19925;-74
2021/06/01 08:12:17;;;;;;;;;;;;;;;;;;5036929;28;19920;-73
2021/06/01 08:14:43;;;;;;;;;;;;;;;;;;5051615;28;19921;-73
2021/06/01 08:17:10;;;;;;;;;;;;;;;;;;5046323;28;19958;-72
2021/06/01 08:19:41;;;;;;;;;;;;;;;;;;5048725;28;19912;-75
2021/06/01 08:24:36;;;;;;;;;;;;;;;;;;5041932;28;19913;-72
2021/06/01 08:27:02;;;;;;;;;;;;;;;;;;5040774;28;19913;-72
2021/06/01 08:29:28;;;;;;;;;;;;;;;;;;5048419;28;20019;-73
2021/06/01 08:31:53;;;;;;;;;;;;;;;;;;5051820;28;19939;-74
2021/06/01 08:34:19;;;;;;;;;;;;;;;;;;5044216;28;20444;-75
2021/06/01 08:36:45;;;;;;;;;;;;;;;;;;5047915;28;19920;-75
2021/06/01 08:39:11;;;;;;;;;;;;;;;;;;5046235;28;20283;-74
2021/06/01 08:41:37;;;;;;;;;;;;;;;;;;5046842;28;19912;-75
2021/06/01 08:44:03;;;;;;;;;;;;;;;;;;5047994;28;19913;-74
2021/06/01 08:46:29;;;;;;;;;;;;;;;;;;5043347;28;19919;-74
2021/06/01 08:48:55;;;;;;;;;;;;;;;;;;5042998;28;19924;-75
2021/06/01 08:51:21;;;;;;;;;;;;;;;;;;5043793;28;19916;-75
2021/06/01 08:53:47;;;;;;;;;;;;;;;;;;5048648;28;20054;-75
2021/06/01 08:56:13;;;;;;;;;;;;;;;;;;5044924;28;20437;-75
2021/06/01 08:58:39;;;;;;;;;;;;;;;;;;5045282;28;19919;-73
2021/06/01 09:01:05;;;;;;;;;;;;;;;;;;5042776;28;19965;-74
2021/06/01 09:03:31;;;;;;;;;;;;;;;;;;5048015;28;19916;-73
2021/06/01 09:05:59;;;;;;;;;;;;;;;;;;5042093;28;19917;-75
2021/06/01 09:08:26;;;;;;;;;;;;;;;;;;5047934;28;20304;-74
2021/06/01 09:11:02;;;;;;;;;;;;;;;;;;5050856;28;19978;-75
2021/06/01 09:13:41;;;;;;;;;;;;;;;;;;5047716;28;19913;-73
2021/06/01 09:21:38;;;;;;;;;;;;;;;;;;5039742;28;20291;-75
2021/06/01 09:24:04;;;;;;;;;;;;;;;;;;5039176;28;20007;-74
2021/06/01 09:26:30;;;;;;;;;;;;;;;;;;5049035;28;19991;-74
2021/06/01 09:28:56;;;;;;;;;;;;;;;;;;5044270;28;20390;-73
2021/06/01 09:31:22;;;;;;;;;;;;;;;;;;5051123;28;19921;-74
2021/06/01 09:33:48;;;;;;;;;;;;;;;;;;5051181;28;20025;-74
2021/06/01 09:36:13;;;;;;;;;;;;;;;;;;5046525;28;19913;-73
2021/06/01 09:38:39;;;;;;;;;;;;;;;;;;5039746;28;19917;-74
2021/06/01 09:41:05;;;;;;;;;;;;;;;;;;5047492;28;19963;-74
2021/06/01 09:43:31;;;;;;;;;;;;;;;;;;5037438;28;19917;-74
2021/06/01 09:45:57;;;;;;;;;;;;;;;;;;5049990;28;19913;-74
2021/06/01 09:48:23;;;;;;;;;;;;;;;;;;5043717;28;19976;-73
2021/06/01 09:50:59;;;;;;;;;;;;;;;;;;5048216;28;20330;-74
2021/06/01 09:53:27;;;;;;;;;;;;;;;;;;5041019;28;19925;-74
2021/06/01 09:55:53;;;;;;;;;;;;;;;;;;5039929;28;19912;-73
2021/06/01 09:58:19;;;;;;;;;;;;;;;;;;5040531;28;20514;-73
2021/06/01 10:00:45;;;;;;;;;;;;;;;;;;5050081;28;19952;-74
2021/06/01 10:03:16;;;;;;;;;;;;;;;;;;5035222;28;19924;-74
2021/06/01 10:05:42;;;;;;;;;;;;;;;;;;5035693;28;19920;-74
2021/06/01 10:08:08;;;;;;;;;;;;;;;;;;5040705;28;19913;-74
2021/06/01 10:10:34;;;;;;;;;;;;;;;;;;5049015;28;19999;-74
2021/06/01 10:13:00;;;;;;;;;;;;;;;;;;5049598;28;20250;-74
2021/06/01 10:15:26;;;;;;;;;;;;;;;;;;5040271;28;19916;-75
2021/06/01 10:17:52;;;;;;;;;;;;;;;;;;5049775;28;19948;-74
2021/06/01 10:20:18;;;;;;;;;;;;;;;;;;5043114;28;20003;-74
2021/06/01 10:22:44;;;;;;;;;;;;;;;;;;5041175;28;19922;-72
2021/06/01 10:25:10;;;;;;;;;;;;;;;;;;5045997;28;19919;-73
2021/06/01 10:27:36;;;;;;;;;;;;;;;;;;5048744;28;19921;-73
2021/06/01 10:30:02;;;;;;;;;;;;;;;;;;5044753;28;20383;-73
2021/06/01 10:32:27;;;;;;;;;;;;;;;;;;5050315;28;20030;-74
2021/06/01 10:34:54;;;;;;;;;;;;;;;;;;5054078;28;20359;-73
2021/06/01 10:42:58;;;;;;;;;;;;;;;;;;5065038;28;19955;-73
2021/06/01 10:50:49;;;;;;;;;;;;;;;;;;5054492;28;20412;-75
2021/06/01 10:53:19;;;;;;;;;;;;;;;;;;5053094;28;19916;-75
2021/06/01 10:55:45;;;;;;;;;;;;;;;;;;5054192;28;20310;-75
2021/06/01 10:58:11;;;;;;;;;;;;;;;;;;5053517;28;19974;-75
2021/06/01 11:03:08;;;;;;;;;;;;;;;;;;5053830;28;20433;-75
2021/06/01 11:05:41;;;;;;;;;;;;;;;;;;5049908;28;19912;-75
2021/06/01 11:08:14;;;;;;;;;;;;;;;;;;5053341;28;20322;-73
2021/06/01 11:10:40;;;;;;;;;;;;;;;;;;5053194;28;19920;-73
2021/06/01 11:13:05;;;;;;;;;;;;;;;;;;5054053;28;19982;-72
2021/06/01 11:15:32;;;;;;;;;;;;;;;;;;5054622;28;19948;-73
2021/06/01 11:17:58;;;;;;;;;;;;;;;;;;5052677;28;19913;-72
2021/06/01 11:20:40;;;;;;;;;;;;;;;;;;5054052;28;19961;-72
2021/06/01 11:23:17;;;;;;;;;;;;;;;;;;5051218;28;20298;-73
2021/06/01 11:33:44;;;;;;;;;;;;;;;;;;5053704;28;20384;-73
2021/06/01 11:36:11;;;;;;;;;;;;;;;;;;5050048;28;20042;-74
2021/06/01 11:43:44;;;;;;;;;;;;;;;;;;5057649;28;19916;-73
2021/06/01 11:51:23;;;;;;;;;;;;;;;;;;5031864;28;20450;-73
2021/06/01 11:53:49;;;;;;;;;;;;;;;;;;5033588;28;20008;-73
2021/06/01 11:56:19;;;;;;;;;;;;;;;;;;5033284;28;20003;-73
2021/06/01 12:04:14;;;;;;;;;;;;;;;;;;5053220;28;19916;-73
2021/06/01 12:12:11;;;;;;;;;;;;;;;;;;5052892;28;20428;-74
2021/06/01 12:17:21;;;;;;;;;;;;;;;;;;5052858;28;19915;-73
2021/06/01 12:19:47;;;;;;;;;;;;;;;;;;5052368;28;19912;-73
2021/06/01 12:22:13;;;;;;;;;;;;;;;;;;5045681;28;19925;-72
2021/06/01 12:24:42;;;;;;;;;;;;;;;;;;5054389;28;20375;-72
2021/06/01 12:32:32;;;;;;;;;;;;;;;;;;5054574;28;20397;-71
2021/06/01 12:45:31;;;;;;;;;;;;;;;;;;5072590;28;19909;-72
2021/06/01 13:05:26;;;;;;;;;;;;;;;;;;5064719;28;19921;-72
2021/06/01 13:14:49;;;;;;;;;;;;;;;;;;5051782;28;19955;-71
2021/06/01 13:20:06;;;;;;;;;;;;;;;;;;5050445;28;19971;-70
2021/06/01 13:30:51;;;;;;;;;;;;;;;;;;5052965;28;19936;-72
2021/06/01 13:38:30;;;;;;;;;;;;;;;;;;5051351;28;19994;-70
2021/06/01 13:45:58;;;;;;;;;;;;;;;;;;5052339;28;19924;-69
2021/06/01 13:46:31;;;;;;;;;;;;;;;;;;5070723;28;19932;-70
2021/06/01 13:49:07;;;;;;;;;;;;;;;;;;5068619;28;20068;-70
2021/06/01 13:56:48;;;;;;;;;;;;;;;;;;5033100;28;20371;-70
2021/06/01 13:59:32;;;;;;;;;;;;;;;;;;5029615;28;19924;-70
2021/06/01 14:19:22;;;;;;;;;;;;;;;;;;5049225;28;20615;-70
2021/06/01 15:24:42;;;;;;;;;;;;;;;;;;5058267;28;20424;-70
2021/06/01 16:30:38;;;;;;;;;;;;;;;;;;5037842;28;20023;-73
2021/06/01 16:41:48;;;;;;;;;;;;;;;;;;5053466;28;20393;-71
2021/06/01 16:44:29;;;;;;;;;;;;;;;;;;5045541;28;20220;-71
2021/06/01 17:05:55;;;;;;;;;;;;;;;;;;5047120;28;19921;-71
2021/06/01 17:11:03;;;;;;;;;;;;;;;;;;5049956;28;20366;-71
2021/06/01 17:13:29;;;;;;;;;;;;;;;;;;5032229;28;19909;-71
2021/06/01 17:15:55;;;;;;;;;;;;;;;;;;5030489;28;20265;-72
2021/06/01 17:21:22;;;;;;;;;;;;;;;;;;5065946;28;19920;-74
2021/06/01 17:36:45;;;;;;;;;;;;;;;;;;5050733;28;19923;-74
2021/06/01 17:39:11;;;;;;;;;;;;;;;;;;5051674;28;19999;-74
2021/06/01 17:41:37;;;;;;;;;;;;;;;;;;5047214;28;20015;-75
2021/06/01 17:44:03;;;;;;;;;;;;;;;;;;5039668;28;19913;-74
2021/06/01 17:46:29;;;;;;;;;;;;;;;;;;5031541;28;19921;-74
2021/06/01 17:48:56;;;;;;;;;;;;;;;;;;5042862;28;19920;-74
2021/06/01 17:51:22;;;;;;;;;;;;;;;;;;5050533;28;19913;-76
2021/06/01 17:53:48;;;;;;;;;;;;;;;;;;5048370;28;20309;-76
2021/06/01 17:56:14;;;;;;;;;;;;;;;;;;5051192;28;20044;-74
2021/06/01 17:58:40;;;;;;;;;;;;;;;;;;5038999;28;21409;-72
2021/06/01 18:01:06;;;;;;;;;;;;;;;;;;5030630;28;19975;-73
2021/06/01 18:03:32;;;;;;;;;;;;;;;;;;5034158;28;19916;-72
2021/06/01 18:05:58;;;;;;;;;;;;;;;;;;5048942;28;19912;-71
2021/06/01 18:08:50;;;;;;;;;;;;;;;;;;5031573;28;19913;-72
2021/06/01 19:51:02;;;;;;;;;;;;;;;;;;5051472;28;20421;-73
2021/06/01 19:53:28;;;;;;;;;;;;;;;;;;5043465;28;19935;-73
2021/06/01 19:55:54;;;;;;;;;;;;;;;;;;5034050;28;20430;-73
2021/06/01 19:58:19;;;;;;;;;;;;;;;;;;5041780;28;19966;-73
2021/06/01 20:00:45;;;;;;;;;;;;;;;;;;5044625;28;19964;-73
2021/06/01 20:03:11;;;;;;;;;;;;;;;;;;5036565;28;19920;-74
2021/06/01 20:05:38;;;;;;;;;;;;;;;;;;5032050;28;19997;-73
2021/06/01 20:08:03;;;;;;;;;;;;;;;;;;5041791;28;20453;-73
2021/06/01 20:10:29;;;;;;;;;;;;;;;;;;5046372;28;20015;-73
2021/06/01 20:12:55;;;;;;;;;;;;;;;;;;5035658;28;19921;-73
2021/06/01 20:15:21;;;;;;;;;;;;;;;;;;5052477;28;19920;-73
2021/06/01 20:17:47;;;;;;;;;;;;;;;;;;5043911;28;20329;-73
2021/06/01 20:20:13;;;;;;;;;;;;;;;;;;5033951;28;19921;-73
2021/06/01 20:22:39;;;;;;;;;;;;;;;;;;5039682;28;19978;-73
2021/06/01 20:25:05;;;;;;;;;;;;;;;;;;5051612;28;19916;-74
2021/06/01 20:27:31;;;;;;;;;;;;;;;;;;5049297;28;19921;-74
2021/06/01 20:30:01;;;;;;;;;;;;;;;;;;5046575;28;19913;-73
2021/06/01 20:35:12;;;;;;;;;;;;;;;;;;5046385;28;19939;-73
2021/06/01 20:37:38;;;;;;;;;;;;;;;;;;5047260;28;20023;-73
2021/06/01 20:40:04;;;;;;;;;;;;;;;;;;5032635;28;19922;-73
2021/06/01 20:42:30;;;;;;;;;;;;;;;;;;5047725;28;19952;-72
2021/06/01 20:44:55;;;;;;;;;;;;;;;;;;5050767;28;20003;-73
2021/06/01 20:47:21;;;;;;;;;;;;;;;;;;5050983;28;20327;-74
2021/06/01 20:49:47;;;;;;;;;;;;;;;;;;5050004;28;19919;-73
2021/06/01 20:52:13;;;;;;;;;;;;;;;;;;5042019;28;19917;-72
2021/06/01 20:54:39;;;;;;;;;;;;;;;;;;5047291;28;19917;-74
2021/06/01 20:57:05;;;;;;;;;;;;;;;;;;5032162;28;19971;-73
2021/06/01 20:59:31;;;;;;;;;;;;;;;;;;5044645;28;19921;-73
2021/06/01 21:01:57;;;;;;;;;;;;;;;;;;5045951;28;19921;-71
2021/06/01 21:04:23;;;;;;;;;;;;;;;;;;5046373;28;19924;-71
2021/06/01 21:06:48;;;;;;;;;;;;;;;;;;5033493;28;19913;-73
2021/06/01 21:09:14;;;;;;;;;;;;;;;;;;5054890;28;19916;-72
2021/06/01 21:11:40;;;;;;;;;;;;;;;;;;5042903;28;19920;-72
2021/06/01 21:14:06;;;;;;;;;;;;;;;;;;5051767;28;19971;-72
2021/06/01 21:16:32;;;;;;;;;;;;;;;;;;5051136;28;20248;-71
2021/06/01 21:18:58;;;;;;;;;;;;;;;;;;5031083;28;19913;-72
2021/06/01 21:21:24;;;;;;;;;;;;;;;;;;5039391;28;20525;-72
2021/06/01 21:23:50;;;;;;;;;;;;;;;;;;5032329;28;19959;-72
2021/06/01 21:26:16;;;;;;;;;;;;;;;;;;5041944;28;19919;-72
2021/06/01 21:28:42;;;;;;;;;;;;;;;;;;5033555;28;19917;-72
2021/06/01 21:31:07;;;;;;;;;;;;;;;;;;5039451;28;19928;-72
2021/06/01 21:33:33;;;;;;;;;;;;;;;;;;5042445;28;19913;-72
2021/06/01 21:35:59;;;;;;;;;;;;;;;;;;5045038;28;19913;-72
2021/06/01 21:38:25;;;;;;;;;;;;;;;;;;5048241;28;20351;-72
2021/06/01 21:40:51;;;;;;;;;;;;;;;;;;5040889;28;19920;-73
2021/06/01 21:43:19;;;;;;;;;;;;;;;;;;5037485;28;19913;-73
2021/06/01 21:45:44;;;;;;;;;;;;;;;;;;5050580;28;19917;-72
2021/06/01 21:48:10;;;;;;;;;;;;;;;;;;5039278;28;19928;-71
2021/06/01 21:50:36;;;;;;;;;;;;;;;;;;5038807;28;19988;-74
2021/06/01 21:53:02;;;;;;;;;;;;;;;;;;5047835;28;19935;-73
2021/06/01 21:55:28;;;;;;;;;;;;;;;;;;5051352;28;19913;-73
2021/06/01 21:57:54;;;;;;;;;;;;;;;;;;5035811;28;19959;-73
2021/06/01 22:00:22;;;;;;;;;;;;;;;;;;5051863;28;19919;-72
2021/06/01 22:02:48;;;;;;;;;;;;;;;;;;5047342;28;20008;-72
2021/06/01 22:05:14;;;;;;;;;;;;;;;;;;5047848;28;20043;-73
2021/06/01 22:07:40;;;;;;;;;;;;;;;;;;5033685;28;19909;-72
2021/06/01 22:10:06;;;;;;;;;;;;;;;;;;5043015;28;19925;-72
2021/06/01 22:12:32;;;;;;;;;;;;;;;;;;5050521;28;19920;-73
2021/06/01 22:14:58;;;;;;;;;;;;;;;;;;5048002;28;19959;-72
2021/06/01 22:17:24;;;;;;;;;;;;;;;;;;5049607;28;19952;-73
2021/06/01 22:19:50;;;;;;;;;;;;;;;;;;5042283;28;20012;-73
2021/06/01 22:22:16;;;;;;;;;;;;;;;;;;5044964;28;20016;-72
2021/06/01 22:24:42;;;;;;;;;;;;;;;;;;5046564;28;20366;-72
2021/06/01 22:27:08;;;;;;;;;;;;;;;;;;5032927;28;19913;-73
2021/06/01 22:29:34;;;;;;;;;;;;;;;;;;5048267;28;19924;-73
2021/06/01 22:32:00;;;;;;;;;;;;;;;;;;5053169;28;19913;-72
2021/06/01 22:34:26;;;;;;;;;;;;;;;;;;5048048;28;19913;-72
2021/06/01 22:36:52;;;;;;;;;;;;;;;;;;5039548;28;20363;-72
2021/06/01 22:39:18;;;;;;;;;;;;;;;;;;5042167;28;19920;-73
2021/06/01 22:41:43;;;;;;;;;;;;;;;;;;5043131;28;19952;-73
2021/06/01 22:44:09;;;;;;;;;;;;;;;;;;5040382;28;20355;-73
2021/06/01 22:46:35;;;;;;;;;;;;;;;;;;5051880;28;19927;-72
2021/06/01 22:49:01;;;;;;;;;;;;;;;;;;5052166;28;19913;-72
2021/06/01 22:51:27;;;;;;;;;;;;;;;;;;5050815;28;20015;-72
2021/06/01 22:53:53;;;;;;;;;;;;;;;;;;5042052;28;19917;-73
2021/06/01 22:56:19;;;;;;;;;;;;;;;;;;5052433;28;19935;-72
2021/06/01 22:58:45;;;;;;;;;;;;;;;;;;5051726;28;19920;-72
2021/06/01 23:01:11;;;;;;;;;;;;;;;;;;5042624;28;20375;-73
2021/06/01 23:03:37;;;;;;;;;;;;;;;;;;5035561;28;19913;-72
2021/06/01 23:06:03;;;;;;;;;;;;;;;;;;5052622;28;19912;-73
2021/06/01 23:08:28;;;;;;;;;;;;;;;;;;5051915;28;19909;-72
2021/06/01 23:10:54;;;;;;;;;;;;;;;;;;5037301;28;19932;-72
2021/06/01 23:13:20;;;;;;;;;;;;;;;;;;5037960;28;19913;-73
2021/06/01 23:15:46;;;;;;;;;;;;;;;;;;5034907;28;20019;-72
2021/06/01 23:18:12;;;;;;;;;;;;;;;;;;5039914;28;20511;-73
2021/06/01 23:20:38;;;;;;;;;;;;;;;;;;5051722;28;19963;-73
2021/06/01 23:23:04;;;;;;;;;;;;;;;;;;5034133;28;19914;-73
2021/06/01 23:25:30;;;;;;;;;;;;;;;;;;5049824;28;19913;-73
2021/06/01 23:27:55;;;;;;;;;;;;;;;;;;5032971;28;20016;-73
2021/06/01 23:30:21;;;;;;;;;;;;;;;;;;5034120;28;19923;-72
2021/06/01 23:32:47;;;;;;;;;;;;;;;;;;5040595;28;19913;-72
2021/06/01 23:35:13;;;;;;;;;;;;;;;;;;5040082;28;19952;-72
2021/06/01 23:37:39;;;;;;;;;;;;;;;;;;5053115;28;19913;-72
2021/06/01 23:40:05;;;;;;;;;;;;;;;;;;5039214;28;20284;-73
2021/06/01 23:42:31;;;;;;;;;;;;;;;;;;5033627;28;19913;-73